createdAt,value
2022-08-19T00:00:22.621Z,14.60
2022-08-19T00:03:08.354Z,15.50
2022-08-19T00:05:53.619Z,15.15
2022-08-19T00:08:39.041Z,15.63
2022-08-19T00:11:28.828Z,14.98
2022-08-19T00:14:17.501Z,14.60
2022-08-19T00:17:03.935Z,14.85
2022-08-19T00:19:49.495Z,15.25
2022-08-19T00:22:35.663Z,16.83
2022-08-19T00:25:30.073Z,15.25
2022-08-19T00:28:16.810Z,15.27
2022-08-19T00:31:04.194Z,14.18
2022-08-19T00:33:52.670Z,15.90
2022-08-19T00:36:38.461Z,16.15
2022-08-19T00:39:24.198Z,15.13
2022-08-19T00:42:09.328Z,14.98
2022-08-19T00:44:54.955Z,14.35
2022-08-19T00:47:40.396Z,15.25
2022-08-19T00:50:25.726Z,15.80
2022-08-19T00:53:13.123Z,15.48
2022-08-19T00:56:01.653Z,15.35
2022-08-19T00:58:47.259Z,15.52
2022-08-19T01:01:32.523Z,14.25
2022-08-19T01:04:17.802Z,14.25
2022-08-19T01:07:03.573Z,14.43
2022-08-19T01:09:48.876Z,13.48
2022-08-19T01:12:35.434Z,14.07
2022-08-19T01:15:29.872Z,13.80
2022-08-19T01:18:18.646Z,13.93
2022-08-19T01:21:11.835Z,13.95
2022-08-19T01:23:57.387Z,15.55
2022-08-19T01:26:45.310Z,14.20
2022-08-19T01:29:32.299Z,14.55
2022-08-19T01:32:32.213Z,13.75
2022-08-19T01:35:21.024Z,12.38
2022-08-19T01:38:09.465Z,12.50
2022-08-19T01:40:54.947Z,12.73
2022-08-19T01:44:09.852Z,12.57
2022-08-19T01:46:49.224Z,12.65
2022-08-19T01:49:34.738Z,12.45
2022-08-19T01:52:20.356Z,12.98
2022-08-19T01:55:08.707Z,14.38
2022-08-19T01:57:58.789Z,13.85
2022-08-19T02:00:45.078Z,13.05
2022-08-19T02:03:30.364Z,13.10
2022-08-19T02:06:17.866Z,14.18
2022-08-19T02:09:05.131Z,13.48
2022-08-19T02:11:50.350Z,13.27
2022-08-19T02:14:36.756Z,12.93
2022-08-19T02:17:21.883Z,13.40
2022-08-19T02:20:08.652Z,13.00
2022-08-19T02:22:53.829Z,14.45
2022-08-19T02:25:39.548Z,13.35
2022-08-19T02:28:24.547Z,14.57
2022-08-19T02:31:13.427Z,14.05
2022-08-19T02:33:58.679Z,14.73
2022-08-19T02:36:44.320Z,14.43
2022-08-19T02:39:37.148Z,15.55
2022-08-19T02:42:22.510Z,14.95
2022-08-19T02:45:08.588Z,15.40
2022-08-19T02:47:54.021Z,15.45
2022-08-19T02:50:40.929Z,15.43
2022-08-19T02:53:38.591Z,14.35
2022-08-19T02:56:25.751Z,15.55
2022-08-19T02:59:12.001Z,14.40
2022-08-19T03:01:57.319Z,14.52
2022-08-19T03:04:43.218Z,14.85
2022-08-19T03:07:28.557Z,15.75
2022-08-19T03:10:14.197Z,15.30
2022-08-19T03:12:59.381Z,14.38
2022-08-19T03:15:50.173Z,15.35
2022-08-19T03:18:35.201Z,15.52
2022-08-19T03:21:24.803Z,16.50
2022-08-19T03:24:10.338Z,15.25
2022-08-19T03:26:59.569Z,15.75
2022-08-19T03:29:44.990Z,15.20
2022-08-19T03:32:32.908Z,15.55
2022-08-19T03:35:18.838Z,15.57
2022-08-19T03:38:05.601Z,15.77
2022-08-19T03:40:50.743Z,13.95
2022-08-19T03:43:38.056Z,13.85
2022-08-19T03:46:26.975Z,15.43
2022-08-19T03:49:13.993Z,15.82
2022-08-19T03:52:01.422Z,15.93
2022-08-19T03:54:46.613Z,16.90
2022-08-19T03:57:33.328Z,17.42
2022-08-19T04:00:18.857Z,16.92
2022-08-19T04:03:04.039Z,19.52
2022-08-19T04:05:49.624Z,23.88
2022-08-19T04:08:35.517Z,26.52
2022-08-19T04:11:24.388Z,20.38
2022-08-19T04:14:34.539Z,21.17
2022-08-19T04:17:19.841Z,18.08
2022-08-19T04:20:06.907Z,17.67
2022-08-19T04:22:52.782Z,17.13
2022-08-19T04:25:41.370Z,18.40
2022-08-19T04:28:26.919Z,15.23
2022-08-19T04:31:17.364Z,16.30
2022-08-19T04:34:05.561Z,15.38
2022-08-19T04:36:52.122Z,16.77
2022-08-19T04:39:57.900Z,15.45
2022-08-19T04:42:47.611Z,17.30
2022-08-19T04:45:43.707Z,14.85
2022-08-19T04:48:29.891Z,15.80
2022-08-19T04:51:16.280Z,16.13
2022-08-19T04:54:05.089Z,15.70
2022-08-19T04:56:50.944Z,14.45
2022-08-19T04:59:37.200Z,14.27
2022-08-19T05:02:26.097Z,15.50
2022-08-19T05:05:11.428Z,15.65
2022-08-19T05:07:56.914Z,15.43
2022-08-19T05:10:42.352Z,14.07
2022-08-19T05:13:28.135Z,15.13
2022-08-19T05:16:15.028Z,14.82
2022-08-19T05:19:19.084Z,15.55
2022-08-19T05:22:42.805Z,14.95
2022-08-19T05:25:28.106Z,14.30
2022-08-19T05:28:13.330Z,15.77
2022-08-19T05:30:58.709Z,15.02
2022-08-19T05:33:43.921Z,16.80
2022-08-19T05:36:33.982Z,15.60
2022-08-19T05:39:21.485Z,16.00
2022-08-19T05:42:09.537Z,16.83
2022-08-19T05:44:54.907Z,16.98
2022-08-19T05:47:42.324Z,16.98
2022-08-19T05:50:27.925Z,16.17
2022-08-19T05:53:14.133Z,16.65
2022-08-19T05:55:59.278Z,16.40
2022-08-19T05:58:46.066Z,16.88
2022-08-19T06:01:31.222Z,16.98
2022-08-19T06:04:16.401Z,17.13
2022-08-19T06:07:12.367Z,16.70
2022-08-19T06:10:00.998Z,16.13
2022-08-19T06:12:46.443Z,17.73
2022-08-19T06:15:32.246Z,16.88
2022-08-19T06:18:18.030Z,17.60
2022-08-19T06:21:05.051Z,17.38
2022-08-19T06:23:52.600Z,19.60
2022-08-19T06:26:40.015Z,19.33
2022-08-19T06:29:27.607Z,18.50
2022-08-19T06:32:15.673Z,18.70
2022-08-19T06:35:01.025Z,19.58
2022-08-19T06:37:46.615Z,16.58
2022-08-19T06:40:32.200Z,20.15
2022-08-19T06:43:18.539Z,19.27
2022-08-19T06:46:04.677Z,21.42
2022-08-19T06:48:54.215Z,21.67
2022-08-19T06:51:42.242Z,21.15
2022-08-19T06:54:30.804Z,20.60
2022-08-19T06:57:16.959Z,21.38
2022-08-19T07:00:03.419Z,18.73
2022-08-19T07:02:53.417Z,19.80
2022-08-19T07:05:45.934Z,20.80
2022-08-19T07:08:32.031Z,21.92
2022-08-19T07:11:19.886Z,19.98
2022-08-19T07:14:06.363Z,21.88
2022-08-19T07:16:55.543Z,20.83
2022-08-19T07:19:42.302Z,19.77
2022-08-19T07:22:27.671Z,19.20
2022-08-19T07:25:14.224Z,19.25
2022-08-19T07:28:01.330Z,20.02
2022-08-19T07:30:46.853Z,18.30
2022-08-19T07:33:33.561Z,18.80
2022-08-19T07:36:23.859Z,17.70
2022-08-19T07:39:25.985Z,18.38
2022-08-19T07:42:13.223Z,18.83
2022-08-19T07:44:59.822Z,17.17
2022-08-19T07:47:49.106Z,18.80
2022-08-19T07:50:36.018Z,18.00
2022-08-19T07:53:22.755Z,19.58
2022-08-19T07:56:08.168Z,19.05
2022-08-19T07:58:54.065Z,18.77
2022-08-19T08:01:41.792Z,17.80
2022-08-19T08:04:46.594Z,17.98
2022-08-19T08:07:50.331Z,18.02
2022-08-19T08:10:35.579Z,18.33
2022-08-19T08:13:21.460Z,18.58
2022-08-19T08:16:10.198Z,16.98
2022-08-19T08:19:00.244Z,15.88
2022-08-19T08:21:46.253Z,15.95
2022-08-19T08:24:31.952Z,15.88
2022-08-19T08:27:17.290Z,14.77
2022-08-19T08:30:07.490Z,15.40
2022-08-19T08:32:52.900Z,13.77
2022-08-19T08:35:38.483Z,13.90
2022-08-19T08:38:23.897Z,12.30
2022-08-19T08:41:31.385Z,13.80
2022-08-19T08:44:23.355Z,13.40
2022-08-19T08:47:14.798Z,12.77
2022-08-19T08:50:03.289Z,12.50
2022-08-19T08:52:54.514Z,11.48
2022-08-19T08:55:42.407Z,13.52
2022-08-19T08:58:51.460Z,11.70
2022-08-19T09:01:40.551Z,13.23
2022-08-19T09:04:26.555Z,14.43
2022-08-19T09:07:45.721Z,13.25
2022-08-19T09:10:44.337Z,12.65
2022-08-19T09:14:07.888Z,14.02
2022-08-19T09:16:53.132Z,14.65
2022-08-19T09:19:54.267Z,15.65
2022-08-19T09:22:41.730Z,15.00
2022-08-19T09:25:29.537Z,16.20
2022-08-19T09:28:22.484Z,16.05
2022-08-19T09:31:12.436Z,16.20
2022-08-19T09:33:58.124Z,15.07
2022-08-19T09:36:43.590Z,15.07
2022-08-19T09:39:35.980Z,15.77
2022-08-19T09:42:29.738Z,14.85
2022-08-19T09:45:17.879Z,17.20
2022-08-19T09:48:03.742Z,13.63
2022-08-19T09:50:51.549Z,13.65
2022-08-19T09:53:38.815Z,15.82
2022-08-19T09:56:25.238Z,16.83
2022-08-19T09:59:11.188Z,16.25
2022-08-19T10:01:56.761Z,16.98
2022-08-19T10:05:08.032Z,16.92
2022-08-19T10:07:53.708Z,16.73
2022-08-19T10:10:46.336Z,16.02
2022-08-19T10:13:33.366Z,15.43
2022-08-19T10:16:25.951Z,16.42
2022-08-19T10:19:11.596Z,14.68
2022-08-19T10:22:00.490Z,14.90
2022-08-19T10:24:49.876Z,15.80
2022-08-19T10:27:35.050Z,17.30
2022-08-19T10:30:21.496Z,14.80
2022-08-19T10:33:11.062Z,15.80
2022-08-19T10:36:01.844Z,16.08
2022-08-19T10:38:54.824Z,14.98
2022-08-19T10:41:44.268Z,15.02
2022-08-19T10:44:32.408Z,14.88
2022-08-19T10:47:25.482Z,14.00
2022-08-19T10:50:30.094Z,13.10
2022-08-19T10:53:15.688Z,12.70
2022-08-19T10:56:19.592Z,12.85
2022-08-19T10:59:05.866Z,11.88
2022-08-19T11:01:52.083Z,12.73
2022-08-19T11:04:41.852Z,11.27
2022-08-19T11:07:27.463Z,11.63
2022-08-19T11:10:19.549Z,10.35
2022-08-19T11:13:07.151Z,10.30
2022-08-19T11:16:07.602Z,9.57
2022-08-19T11:18:59.224Z,9.43
2022-08-19T11:21:47.237Z,9.60
2022-08-19T11:24:34.686Z,10.07
2022-08-19T11:27:19.911Z,10.43
2022-08-19T11:30:07.119Z,9.48
2022-08-19T11:32:53.400Z,9.65
2022-08-19T11:35:41.805Z,9.10
2022-08-19T11:38:27.715Z,9.48
2022-08-19T11:41:12.782Z,9.50
2022-08-19T11:43:58.201Z,10.23
2022-08-19T11:46:47.469Z,9.48
2022-08-19T11:49:32.868Z,9.48
2022-08-19T11:52:18.344Z,10.48
2022-08-19T11:55:03.910Z,9.25
2022-08-19T11:57:49.205Z,9.70
2022-08-19T12:00:37.416Z,9.43
2022-08-19T12:03:22.758Z,8.35
2022-08-19T12:06:15.825Z,8.80
2022-08-19T12:09:05.708Z,7.72
2022-08-19T12:11:51.843Z,8.70
2022-08-19T12:14:37.257Z,10.18
2022-08-19T12:17:22.704Z,8.48
2022-08-19T12:20:09.857Z,8.20
2022-08-19T12:22:55.488Z,7.93
2022-08-19T12:25:50.954Z,8.77
2022-08-19T12:28:35.998Z,9.05
2022-08-19T12:31:21.918Z,9.30
2022-08-19T12:34:07.355Z,9.55
2022-08-19T12:36:54.851Z,8.85
2022-08-19T12:39:42.797Z,8.60
2022-08-19T12:42:28.047Z,8.93
2022-08-19T12:45:14.719Z,7.45
2022-08-19T12:48:00.115Z,6.50
2022-08-19T12:50:46.580Z,7.85
2022-08-19T12:53:31.954Z,7.80
2022-08-19T12:56:22.280Z,7.68
2022-08-19T12:59:09.208Z,7.40
2022-08-19T13:01:54.335Z,7.60
2022-08-19T13:04:41.679Z,7.35
2022-08-19T13:07:26.680Z,8.10
2022-08-19T13:10:16.351Z,7.45
2022-08-19T13:13:08.840Z,7.53
2022-08-19T13:16:05.775Z,7.75
2022-08-19T13:18:54.251Z,7.65
2022-08-19T13:21:39.562Z,7.30
2022-08-19T13:24:33.486Z,8.75
2022-08-19T13:27:19.597Z,8.18
2022-08-19T13:30:25.243Z,7.00
2022-08-19T13:33:17.144Z,6.65
2022-08-19T13:36:02.846Z,6.93
2022-08-19T13:38:48.316Z,6.95
2022-08-19T13:41:34.698Z,6.85
2022-08-19T13:44:20.493Z,8.63
2022-08-19T13:47:07.644Z,6.57
2022-08-19T13:49:53.100Z,5.57
2022-08-19T13:52:39.219Z,6.65
2022-08-19T13:55:26.114Z,5.18
2022-08-19T13:58:12.200Z,5.60
2022-08-19T14:00:58.097Z,5.30
2022-08-19T14:03:45.527Z,5.55
2022-08-19T14:06:33.741Z,6.35
2022-08-19T14:09:18.853Z,5.18
2022-08-19T14:12:05.664Z,4.45
2022-08-19T14:14:50.785Z,4.65
2022-08-19T14:17:43.112Z,4.88
2022-08-19T14:23:14.531Z,6.20
2022-08-19T14:26:11.097Z,6.22
2022-08-19T14:28:58.789Z,5.13
2022-08-19T14:31:44.969Z,5.40
2022-08-19T14:34:32.550Z,5.57
2022-08-19T14:37:17.694Z,7.07
2022-08-19T14:40:04.916Z,6.13
2022-08-19T14:42:50.231Z,6.72
2022-08-19T14:45:38.093Z,7.20
2022-08-19T14:48:23.526Z,7.03
2022-08-19T14:51:15.195Z,8.13
2022-08-19T14:54:00.396Z,8.18
2022-08-19T14:56:46.106Z,8.05
2022-08-19T14:59:31.529Z,9.32
2022-08-19T15:02:34.107Z,9.77
2022-08-19T15:05:20.858Z,8.65
2022-08-19T15:08:06.290Z,8.75
2022-08-19T15:10:52.499Z,9.27
2022-08-19T15:13:38.964Z,7.78
2022-08-19T15:16:26.074Z,8.38
2022-08-19T15:19:11.358Z,9.25
2022-08-19T15:21:58.305Z,10.82
2022-08-19T15:24:47.992Z,8.77
2022-08-19T15:27:35.132Z,9.32
2022-08-19T15:30:24.268Z,9.50
2022-08-19T15:33:10.756Z,10.30
2022-08-19T15:35:58.310Z,9.27
2022-08-19T15:38:46.081Z,10.00
2022-08-19T15:41:31.718Z,9.73
2022-08-19T15:44:18.883Z,8.60
2022-08-19T15:47:04.168Z,9.82
2022-08-19T15:49:49.242Z,9.90
2022-08-19T15:52:34.826Z,10.23
2022-08-19T15:55:34.531Z,11.80
2022-08-19T15:58:38.524Z,12.35
2022-08-19T16:01:42.877Z,12.10
2022-08-19T16:04:47.287Z,11.18
2022-08-19T16:07:32.807Z,11.95
2022-08-19T16:10:26.355Z,11.27
2022-08-19T16:13:13.213Z,12.10
2022-08-19T16:15:58.669Z,10.73
2022-08-19T16:18:43.918Z,10.55
2022-08-19T16:21:33.396Z,11.40
2022-08-19T16:24:21.694Z,11.50
2022-08-19T16:27:07.088Z,11.20
2022-08-19T16:29:52.783Z,11.48
2022-08-19T16:32:43.737Z,12.55
2022-08-19T16:35:28.910Z,11.73
2022-08-19T16:38:14.470Z,13.77
2022-08-19T16:41:01.393Z,11.80
2022-08-19T16:43:46.990Z,12.98
2022-08-19T16:46:32.338Z,12.88
2022-08-19T16:49:22.251Z,13.27
2022-08-19T16:52:26.877Z,14.63
2022-08-19T16:55:11.843Z,12.10
2022-08-19T16:57:57.450Z,14.65
2022-08-19T17:00:42.725Z,12.10
2022-08-19T17:03:35.831Z,11.40
2022-08-19T17:06:26.367Z,12.63
2022-08-19T17:09:11.943Z,11.05
2022-08-19T17:11:57.500Z,9.88
2022-08-19T17:14:45.547Z,11.68
2022-08-19T17:17:31.892Z,11.35
2022-08-19T17:20:16.879Z,11.57
2022-08-19T17:23:02.735Z,12.23
2022-08-19T17:25:48.453Z,12.48
2022-08-19T17:28:33.704Z,12.23
2022-08-19T17:31:21.412Z,12.30
2022-08-19T17:34:07.004Z,12.68
2022-08-19T17:36:57.031Z,12.32
2022-08-19T17:39:42.635Z,13.35
2022-08-19T17:42:28.088Z,13.38
2022-08-19T17:45:14.484Z,12.85
2022-08-19T17:48:00.957Z,12.75
2022-08-19T17:50:46.253Z,11.98
2022-08-19T17:53:33.233Z,12.82
2022-08-19T17:56:19.598Z,10.45
2022-08-19T17:59:09.160Z,9.98
2022-08-19T18:02:00.015Z,8.90
2022-08-19T18:04:48.823Z,9.38
2022-08-19T18:07:34.326Z,8.80
2022-08-19T18:10:21.097Z,8.43
2022-08-19T18:13:17.188Z,7.63
2022-08-19T18:16:04.099Z,9.20
2022-08-19T18:18:49.493Z,8.50
2022-08-19T18:21:36.022Z,7.47
2022-08-19T18:24:21.078Z,8.35
2022-08-19T18:27:07.145Z,9.40
2022-08-19T18:29:54.487Z,9.52
2022-08-19T18:32:42.173Z,9.63
2022-08-19T18:35:30.539Z,10.05
2022-08-19T18:38:36.090Z,11.07
2022-08-19T18:41:39.967Z,9.90
2022-08-19T18:44:43.926Z,9.95
2022-08-19T18:47:47.887Z,9.85
2022-08-19T18:50:33.370Z,9.35
2022-08-19T18:53:18.899Z,10.00
2022-08-19T18:56:05.589Z,10.70
2022-08-19T18:58:51.297Z,9.98
2022-08-19T19:01:40.118Z,11.05
2022-08-19T19:04:29.452Z,9.63
2022-08-19T19:07:14.634Z,9.32
2022-08-19T19:10:00.222Z,9.50
2022-08-19T19:12:45.577Z,9.85
2022-08-19T19:15:31.092Z,8.52
2022-08-19T19:18:18.463Z,8.73
2022-08-19T19:21:04.452Z,8.18
2022-08-19T19:23:50.426Z,7.43
2022-08-19T19:26:36.942Z,6.65
2022-08-19T19:29:22.217Z,7.13
2022-08-19T19:32:11.280Z,6.80
2022-08-19T19:34:56.544Z,7.00
2022-08-19T19:37:43.335Z,7.13
2022-08-19T19:40:29.330Z,5.90
2022-08-19T19:43:18.214Z,5.10
2022-08-19T19:46:03.713Z,4.55
2022-08-19T19:48:53.247Z,5.00
2022-08-19T19:51:41.616Z,4.57
2022-08-19T19:54:28.725Z,4.35
2022-08-19T19:57:15.314Z,4.03
2022-08-19T20:00:00.826Z,4.00
2022-08-19T20:02:49.865Z,4.10
2022-08-19T20:05:35.913Z,4.28
2022-08-19T20:08:39.634Z,5.28
2022-08-19T20:11:34.088Z,5.32
2022-08-19T20:14:25.082Z,4.95
2022-08-19T20:17:10.178Z,5.60
2022-08-19T20:19:57.439Z,5.93
2022-08-19T20:22:43.985Z,5.93
2022-08-19T20:25:30.381Z,5.68
2022-08-19T20:28:15.920Z,7.13
2022-08-19T20:31:01.168Z,5.63
2022-08-19T20:33:47.667Z,6.93
2022-08-19T20:36:33.095Z,5.70
2022-08-19T20:39:18.692Z,5.25
2022-08-19T20:42:04.448Z,6.43
2022-08-19T20:44:49.824Z,5.28
2022-08-19T20:47:36.032Z,5.40
2022-08-19T20:50:22.002Z,6.00
2022-08-19T20:53:13.177Z,5.68
2022-08-19T20:55:59.959Z,5.53
2022-08-19T20:58:48.752Z,5.38
2022-08-19T21:01:39.357Z,5.00
2022-08-19T21:04:24.614Z,5.57
2022-08-19T21:07:10.016Z,5.28
2022-08-19T21:09:55.371Z,6.30
2022-08-19T21:12:41.936Z,4.97
2022-08-19T21:15:27.304Z,4.93
2022-08-19T21:18:15.459Z,5.40
2022-08-19T21:21:01.460Z,5.30
2022-08-19T21:23:46.845Z,5.53
2022-08-19T21:26:32.111Z,5.57
2022-08-19T21:29:17.557Z,6.47
2022-08-19T21:32:04.131Z,5.35
2022-08-19T21:34:50.675Z,5.63
2022-08-19T21:37:36.314Z,7.22
2022-08-19T21:40:21.780Z,7.28
2022-08-19T21:43:07.274Z,6.43
2022-08-19T21:45:52.563Z,6.32
2022-08-19T21:48:38.179Z,4.95
2022-08-19T21:51:23.624Z,4.88
2022-08-19T21:54:08.861Z,5.28
2022-08-19T21:56:59.410Z,5.18
2022-08-19T21:59:44.826Z,5.10
2022-08-19T22:02:31.015Z,5.50
2022-08-19T22:05:17.009Z,5.07
2022-08-19T22:08:03.209Z,5.45
2022-08-19T22:10:49.627Z,4.90
2022-08-19T22:13:40.046Z,4.35
2022-08-19T22:16:25.746Z,4.45
2022-08-19T22:19:11.151Z,4.50
2022-08-19T22:21:57.024Z,4.30
2022-08-19T22:24:42.371Z,3.97
2022-08-19T22:27:28.108Z,4.20
2022-08-19T22:30:19.345Z,3.95
2022-08-19T22:33:11.506Z,4.00
2022-08-19T22:35:56.739Z,3.63
2022-08-19T22:38:42.046Z,3.67
2022-08-19T22:41:27.641Z,3.35
2022-08-19T22:44:12.866Z,4.47
2022-08-19T22:46:58.170Z,4.28
2022-08-19T22:49:44.350Z,3.42
2022-08-19T22:52:29.990Z,3.92
2022-08-19T22:55:15.315Z,3.38
2022-08-19T22:58:03.344Z,3.38
2022-08-19T23:00:48.397Z,4.72
2022-08-19T23:03:34.257Z,4.28
2022-08-19T23:06:19.541Z,3.10
2022-08-19T23:09:07.375Z,3.78
2022-08-19T23:11:54.100Z,3.60
2022-08-19T23:14:40.679Z,3.58
2022-08-19T23:17:25.953Z,3.42
2022-08-19T23:20:14.950Z,3.75
2022-08-19T23:23:02.592Z,4.30
2022-08-19T23:25:49.047Z,3.88
2022-08-19T23:28:52.582Z,4.10
2022-08-19T23:31:37.819Z,4.60
2022-08-19T23:34:23.234Z,4.13
2022-08-19T23:37:08.668Z,4.25
2022-08-19T23:39:53.932Z,4.43
2022-08-19T23:42:46.461Z,3.90
2022-08-19T23:45:32.774Z,4.53
2022-08-19T23:48:18.990Z,5.22
2022-08-19T23:51:07.828Z,5.38
2022-08-19T23:53:53.306Z,4.90
2022-08-19T23:56:38.586Z,5.40
2022-08-19T23:59:24.234Z,5.45
